Arminto, Wyoming
Current Conditions -  °F | °C
As of 3:53 PM on Thursday 27 Nov 2014 (Local Time) from KCPR Reporting Station
Clear Clear  
Wind Chill: 44°   Ceiling: Unl
Heat Index: 49°   Visibility: 10mi
Dew Point: 27°   Wind: 13mph
Humidity: 43%   Direction: 230°SW
Pressure: 30.05"   Gusts: NA
Location:  43.18°N, 107.26°W
Report Text: KCPR 272253Z 23011KT 10SM CLR 09/M03 A3005 RMK AO2 SLP165 T00941028
Loading
Personal Weather Stations






























Interactive Weather Map New forecast layout! Learn more

10-Day Weather Forecast

Advertisements
Track Severe Weather on mobile